KOCH/OCH METAR and TAF weather

Enter ICAO airport designator
Station Type Date Time Source
KOCH METAR 2019/05/26 22:56 UTC NOAA

KOCH 262256Z AUTO VRB05KT 10SM CLR 31/22 A3003 RMK AO2 SLP168 T03110217


Station Type Date Time Source
KOCH Decoded METAR 2019/05/26 22:56 UTC NOAA

Nacogdoches, A L Mangham Jr. Regional Airport, TX, United States (KOCH) 31-35N 094-43W
May 26, 2019 - 06:56 PM EDT / 2019.05.26 2256 UTC
Wind: Variable at 6 MPH (5 KT):0
Visibility: 10 mile(s):0
Sky conditions: clear
Temperature: 88.0 F (31.1 C)
Heat index: 93.7 F (34.3 C):1
Dew Point: 71.1 F (21.7 C)
Relative Humidity: 57%
Pressure (altimeter): 30.03 in. Hg (1016 hPa)
ob: KOCH 262256Z AUTO VRB05KT 10SM CLR 31/22 A3003 RMK AO2 SLP168 T03110217
cycle: 23

Station Type Date Time Source
KOCH TAF UTC NOAA

Error!

Example: see airport list